EJU71BD LIEO-LIMC
Flight info
| Callsign | EJU71BD |
|---|---|
| Flight time | 1h 1m |
| Altitude | 30000 |
| Route | OKIVA P980 DIKEL DCT RATAP DCT MEGER DCT ANAKI P860 DEVOX |
| Aircraft | A320/M-SDE2E3FGHIJ1RWXYZ/LB1 |
Departure
| Time | 2026-05-06 10:26 |
|---|---|
| Airport | Olbia Costa Smeralda Airport (LIEO) |
Arrival
| Time | 2026-05-06 11:28 |
|---|---|
| Airport | Milan Malpensa International Airport (LIMC) |
| Time | Latitude | Longitude | Altitude | Speed | Heading |
|---|---|---|---|---|---|
| 2026-05-06 09:59 | 40.90310 | 9.51777 | 36 ft | 0 kts | 23° |
| 2026-05-06 10:20 | 40.90313 | 9.51780 | 35 ft | 2 kts | 38° |
| 2026-05-06 10:21 | 40.90306 | 9.51805 | 34 ft | 4 kts | 152° |
| 2026-05-06 10:21 | 40.90272 | 9.51829 | 35 ft | 5 kts | 118° |
| 2026-05-06 10:21 | 40.90275 | 9.51864 | 35 ft | 2 kts | 106° |
| 2026-05-06 10:21 | 40.90267 | 9.51866 | 35 ft | 1 kts | 165° |
| 2026-05-06 10:22 | 40.90250 | 9.51830 | 35 ft | 7 kts | 245° |
| 2026-05-06 10:22 | 40.90211 | 9.51812 | 33 ft | 6 kts | 157° |
| 2026-05-06 10:22 | 40.90187 | 9.51851 | 33 ft | 6 kts | 109° |
| 2026-05-06 10:22 | 40.90178 | 9.51954 | 30 ft | 16 kts | 83° |
| 2026-05-06 10:23 | 40.90233 | 9.52075 | 29 ft | 15 kts | 55° |
| 2026-05-06 10:23 | 40.90292 | 9.52188 | 28 ft | 17 kts | 55° |
| 2026-05-06 10:23 | 40.90356 | 9.52310 | 28 ft | 16 kts | 55° |
| 2026-05-06 10:23 | 40.90421 | 9.52434 | 24 ft | 17 kts | 55° |
| 2026-05-06 10:24 | 40.90489 | 9.52566 | 20 ft | 18 kts | 55° |
| 2026-05-06 10:24 | 40.90555 | 9.52711 | 17 ft | 18 kts | 75° |
| 2026-05-06 10:24 | 40.90575 | 9.52829 | 16 ft | 9 kts | 78° |
| 2026-05-06 10:24 | 40.90562 | 9.52902 | 15 ft | 8 kts | 131° |
| 2026-05-06 10:25 | 40.90506 | 9.52928 | 14 ft | 9 kts | 178° |
| 2026-05-06 10:25 | 40.90453 | 9.52883 | 13 ft | 11 kts | 232° |
| 2026-05-06 10:25 | 40.90347 | 9.52684 | 18 ft | 56 kts | 236° |
| 2026-05-06 10:25 | 40.89999 | 9.52017 | 22 ft | 118 kts | 235° |
| 2026-05-06 10:26 | 40.89436 | 9.50947 | 129 ft | 155 kts | 236° |
| 2026-05-06 10:26 | 40.88833 | 9.49770 | 747 ft | 156 kts | 238° |
| 2026-05-06 10:26 | 40.88223 | 9.48581 | 1399 ft | 160 kts | 236° |
| 2026-05-06 10:26 | 40.87552 | 9.47294 | 1748 ft | 181 kts | 235° |
| 2026-05-06 10:27 | 40.86788 | 9.45838 | 2059 ft | 204 kts | 235° |
| 2026-05-06 10:27 | 40.85947 | 9.44241 | 2611 ft | 216 kts | 235° |
| 2026-05-06 10:27 | 40.85091 | 9.42622 | 3508 ft | 215 kts | 235° |
| 2026-05-06 10:27 | 40.84238 | 9.41010 | 4429 ft | 214 kts | 234° |
| 2026-05-06 10:28 | 40.83392 | 9.39370 | 5215 ft | 219 kts | 241° |
| 2026-05-06 10:28 | 40.83106 | 9.37409 | 5986 ft | 227 kts | 278° |
| 2026-05-06 10:28 | 40.83870 | 9.35500 | 6462 ft | 255 kts | 311° |
| 2026-05-06 10:28 | 40.85384 | 9.34070 | 6951 ft | 278 kts | 327° |
| 2026-05-06 10:29 | 40.87158 | 9.32958 | 7696 ft | 285 kts | 332° |
| 2026-05-06 10:29 | 40.89006 | 9.31951 | 8477 ft | 290 kts | 333° |
| 2026-05-06 10:29 | 40.90882 | 9.30930 | 9278 ft | 293 kts | 333° |
| 2026-05-06 10:29 | 40.92770 | 9.29855 | 10075 ft | 297 kts | 331° |
| 2026-05-06 10:30 | 40.94704 | 9.28694 | 10441 ft | 317 kts | 330° |
| 2026-05-06 10:30 | 40.96762 | 9.27402 | 10766 ft | 335 kts | 330° |
| 2026-05-06 10:30 | 40.98881 | 9.26043 | 11471 ft | 341 kts | 329° |
| 2026-05-06 10:30 | 41.01024 | 9.24660 | 12237 ft | 344 kts | 329° |
| 2026-05-06 10:31 | 41.03195 | 9.23293 | 12959 ft | 349 kts | 333° |
| 2026-05-06 10:31 | 41.05526 | 9.22257 | 13665 ft | 356 kts | 338° |
| 2026-05-06 10:31 | 41.07096 | 9.21604 | 14087 ft | 359 kts | 338° |
| 2026-05-06 10:31 | 41.09489 | 9.20609 | 14711 ft | 362 kts | 338° |
| 2026-05-06 10:32 | 41.12729 | 9.19258 | 15521 ft | 367 kts | 338° |
| 2026-05-06 10:32 | 41.14348 | 9.18581 | 15940 ft | 370 kts | 338° |
| 2026-05-06 10:32 | 41.16816 | 9.17551 | 16552 ft | 374 kts | 338° |
| 2026-05-06 10:32 | 41.19310 | 9.16513 | 17164 ft | 378 kts | 338° |
| 2026-05-06 10:33 | 41.21832 | 9.15463 | 17763 ft | 382 kts | 338° |
| 2026-05-06 10:33 | 41.24378 | 9.14398 | 18323 ft | 386 kts | 337° |
| 2026-05-06 10:33 | 41.26950 | 9.13322 | 18847 ft | 389 kts | 337° |
| 2026-05-06 10:33 | 41.29543 | 9.12235 | 19364 ft | 392 kts | 337° |
| 2026-05-06 10:34 | 41.32176 | 9.11209 | 19897 ft | 398 kts | 342° |
| 2026-05-06 10:34 | 41.34951 | 9.10718 | 20420 ft | 408 kts | 353° |
| 2026-05-06 10:34 | 41.37817 | 9.10775 | 20935 ft | 414 kts | 356° |
| 2026-05-06 10:34 | 41.40706 | 9.10885 | 21446 ft | 417 kts | 356° |
| 2026-05-06 10:35 | 41.43618 | 9.10989 | 21961 ft | 421 kts | 356° |
| 2026-05-06 10:35 | 41.46560 | 9.11091 | 22464 ft | 425 kts | 356° |
| 2026-05-06 10:35 | 41.49526 | 9.11193 | 22969 ft | 428 kts | 355° |
| 2026-05-06 10:35 | 41.52515 | 9.11292 | 23458 ft | 432 kts | 355° |
| 2026-05-06 10:36 | 41.55532 | 9.11385 | 23875 ft | 435 kts | 355° |
| 2026-05-06 10:36 | 41.58564 | 9.11421 | 24306 ft | 436 kts | 354° |
| 2026-05-06 10:36 | 41.61606 | 9.11400 | 24706 ft | 438 kts | 353° |
| 2026-05-06 10:36 | 41.64666 | 9.11347 | 25077 ft | 442 kts | 353° |
| 2026-05-06 10:37 | 41.67751 | 9.11290 | 25430 ft | 445 kts | 353° |
| 2026-05-06 10:37 | 41.70860 | 9.11242 | 25794 ft | 448 kts | 353° |
| 2026-05-06 10:37 | 41.73990 | 9.11204 | 26152 ft | 451 kts | 353° |
| 2026-05-06 10:37 | 41.77141 | 9.11175 | 26530 ft | 454 kts | 353° |
| 2026-05-06 10:38 | 41.80308 | 9.11151 | 26883 ft | 456 kts | 353° |
| 2026-05-06 10:38 | 41.83491 | 9.11129 | 27239 ft | 459 kts | 353° |
| 2026-05-06 10:38 | 41.86692 | 9.11109 | 27625 ft | 461 kts | 354° |
| 2026-05-06 10:38 | 41.89908 | 9.11088 | 27977 ft | 463 kts | 354° |
| 2026-05-06 10:39 | 41.93098 | 9.11066 | 28316 ft | 465 kts | 353° |
| 2026-05-06 10:39 | 41.96343 | 9.11044 | 28638 ft | 468 kts | 353° |
| 2026-05-06 10:39 | 41.99610 | 9.11019 | 28977 ft | 470 kts | 353° |
| 2026-05-06 10:39 | 42.02889 | 9.10991 | 29298 ft | 473 kts | 353° |
| 2026-05-06 10:40 | 42.06190 | 9.10962 | 29628 ft | 475 kts | 354° |
| 2026-05-06 10:40 | 42.09490 | 9.10937 | 29882 ft | 475 kts | 354° |
| 2026-05-06 10:40 | 42.15975 | 9.10905 | 29934 ft | 453 kts | 354° |
| 2026-05-06 10:41 | 42.22237 | 9.10853 | 29929 ft | 448 kts | 353° |
| 2026-05-06 10:41 | 42.28464 | 9.10790 | 29921 ft | 448 kts | 354° |
| 2026-05-06 10:42 | 42.34700 | 9.10741 | 29927 ft | 448 kts | 354° |
| 2026-05-06 10:42 | 42.40943 | 9.10695 | 29928 ft | 448 kts | 354° |
| 2026-05-06 10:43 | 42.47174 | 9.10642 | 29926 ft | 448 kts | 354° |
| 2026-05-06 10:44 | 42.56526 | 9.10569 | 29919 ft | 448 kts | 354° |
| 2026-05-06 10:44 | 42.62758 | 9.10528 | 29919 ft | 448 kts | 354° |
| 2026-05-06 10:45 | 42.68996 | 9.10473 | 29936 ft | 448 kts | 354° |
| 2026-05-06 10:45 | 42.75253 | 9.10781 | 29926 ft | 452 kts | 359° |
| 2026-05-06 10:46 | 42.81520 | 9.11526 | 29917 ft | 452 kts | 359° |
| 2026-05-06 10:46 | 42.87788 | 9.12265 | 29943 ft | 452 kts | 360° |
| 2026-05-06 10:47 | 42.94065 | 9.12998 | 29928 ft | 453 kts | 360° |
| 2026-05-06 10:47 | 43.00344 | 9.13718 | 29921 ft | 453 kts | 360° |
| 2026-05-06 10:48 | 43.06625 | 9.14446 | 29934 ft | 453 kts | 360° |
| 2026-05-06 10:48 | 43.12911 | 9.15183 | 29923 ft | 454 kts | 360° |
| 2026-05-06 10:49 | 43.19202 | 9.15930 | 29914 ft | 454 kts | 360° |
| 2026-05-06 10:49 | 43.25502 | 9.16673 | 29910 ft | 454 kts | 360° |
| 2026-05-06 10:50 | 43.31783 | 9.17067 | 29912 ft | 447 kts | 349° |
| 2026-05-06 10:50 | 43.37728 | 9.15263 | 29902 ft | 431 kts | 331° |
| 2026-05-06 10:51 | 43.43318 | 9.12383 | 29896 ft | 432 kts | 332° |
| 2026-05-06 10:51 | 43.48957 | 9.09504 | 29912 ft | 433 kts | 332° |
| 2026-05-06 10:52 | 43.54625 | 9.06607 | 29890 ft | 435 kts | 331° |
| 2026-05-06 10:52 | 43.60310 | 9.03683 | 29883 ft | 437 kts | 331° |
| 2026-05-06 10:53 | 43.66009 | 9.00743 | 29881 ft | 438 kts | 331° |
| 2026-05-06 10:53 | 43.71726 | 8.97787 | 29891 ft | 439 kts | 330° |
| 2026-05-06 10:54 | 43.77450 | 8.94830 | 29882 ft | 439 kts | 330° |
| 2026-05-06 10:54 | 43.83171 | 8.91865 | 29880 ft | 439 kts | 330° |
| 2026-05-06 10:55 | 43.88893 | 8.88882 | 29908 ft | 439 kts | 330° |
| 2026-05-06 10:55 | 43.94606 | 8.85911 | 29572 ft | 436 kts | 330° |
| 2026-05-06 10:55 | 43.97435 | 8.84446 | 29051 ft | 432 kts | 330° |
| 2026-05-06 10:56 | 44.00237 | 8.82998 | 28577 ft | 428 kts | 330° |
| 2026-05-06 10:56 | 44.03009 | 8.81560 | 28115 ft | 423 kts | 330° |
| 2026-05-06 10:56 | 44.05755 | 8.80128 | 27647 ft | 420 kts | 330° |
| 2026-05-06 10:56 | 44.08476 | 8.78701 | 27193 ft | 416 kts | 330° |
| 2026-05-06 10:57 | 44.11179 | 8.77276 | 26701 ft | 415 kts | 330° |
| 2026-05-06 10:57 | 44.13868 | 8.75855 | 26221 ft | 412 kts | 330° |
| 2026-05-06 10:57 | 44.16542 | 8.74442 | 25741 ft | 410 kts | 330° |
| 2026-05-06 10:57 | 44.19271 | 8.73221 | 25299 ft | 415 kts | 340° |
| 2026-05-06 10:58 | 44.22154 | 8.72681 | 24832 ft | 423 kts | 352° |
| 2026-05-06 10:58 | 44.25109 | 8.72764 | 24345 ft | 425 kts | 356° |
| 2026-05-06 10:58 | 44.28062 | 8.72910 | 23854 ft | 424 kts | 356° |
| 2026-05-06 10:58 | 44.31007 | 8.73044 | 23360 ft | 423 kts | 356° |
| 2026-05-06 10:59 | 44.33949 | 8.73164 | 22829 ft | 421 kts | 356° |
| 2026-05-06 10:59 | 44.36870 | 8.73283 | 22349 ft | 418 kts | 356° |
| 2026-05-06 10:59 | 44.39758 | 8.73405 | 21941 ft | 413 kts | 356° |
| 2026-05-06 10:59 | 44.42630 | 8.73529 | 21505 ft | 410 kts | 356° |
| 2026-05-06 11:00 | 44.45444 | 8.73653 | 21019 ft | 410 kts | 356° |
| 2026-05-06 11:00 | 44.48303 | 8.73781 | 20708 ft | 403 kts | 356° |
| 2026-05-06 11:00 | 44.51100 | 8.73905 | 20263 ft | 401 kts | 356° |
| 2026-05-06 11:00 | 44.53881 | 8.74025 | 19837 ft | 399 kts | 356° |
| 2026-05-06 11:01 | 44.56645 | 8.74143 | 19423 ft | 395 kts | 356° |
| 2026-05-06 11:01 | 44.59382 | 8.74259 | 19010 ft | 392 kts | 357° |
| 2026-05-06 11:01 | 44.62063 | 8.74374 | 18637 ft | 389 kts | 357° |
| 2026-05-06 11:01 | 44.64790 | 8.74490 | 18259 ft | 386 kts | 357° |
| 2026-05-06 11:02 | 44.67430 | 8.74598 | 17870 ft | 383 kts | 355° |
| 2026-05-06 11:02 | 44.70032 | 8.74266 | 17594 ft | 368 kts | 342° |
| 2026-05-06 11:02 | 44.72419 | 8.73268 | 17480 ft | 350 kts | 333° |
| 2026-05-06 11:02 | 44.74678 | 8.72109 | 17259 ft | 342 kts | 333° |
| 2026-05-06 11:03 | 44.76904 | 8.70960 | 16921 ft | 339 kts | 333° |
| 2026-05-06 11:03 | 44.79107 | 8.69815 | 16550 ft | 336 kts | 334° |
| 2026-05-06 11:03 | 44.81296 | 8.68672 | 16195 ft | 335 kts | 334° |
| 2026-05-06 11:03 | 44.83474 | 8.67538 | 15853 ft | 333 kts | 334° |
| 2026-05-06 11:04 | 44.85642 | 8.66410 | 15495 ft | 331 kts | 334° |
| 2026-05-06 11:04 | 44.87795 | 8.65292 | 15157 ft | 330 kts | 335° |
| 2026-05-06 11:04 | 44.89946 | 8.64177 | 14801 ft | 329 kts | 335° |
| 2026-05-06 11:04 | 44.92088 | 8.63068 | 14455 ft | 327 kts | 335° |
| 2026-05-06 11:05 | 44.94221 | 8.61963 | 14135 ft | 326 kts | 335° |
| 2026-05-06 11:05 | 44.96342 | 8.60860 | 13809 ft | 324 kts | 335° |
| 2026-05-06 11:05 | 44.98448 | 8.59763 | 13347 ft | 320 kts | 335° |
| 2026-05-06 11:05 | 45.00556 | 8.58777 | 12662 ft | 320 kts | 343° |
| 2026-05-06 11:06 | 45.02738 | 8.58156 | 12144 ft | 320 kts | 345° |
| 2026-05-06 11:06 | 45.04913 | 8.57562 | 11738 ft | 315 kts | 345° |
| 2026-05-06 11:06 | 45.07049 | 8.56978 | 11087 ft | 312 kts | 345° |
| 2026-05-06 11:06 | 45.09168 | 8.56394 | 10458 ft | 308 kts | 345° |
| 2026-05-06 11:07 | 45.11256 | 8.55817 | 9947 ft | 301 kts | 345° |
| 2026-05-06 11:07 | 45.13307 | 8.55252 | 9626 ft | 300 kts | 345° |
| 2026-05-06 11:07 | 45.15355 | 8.54684 | 9353 ft | 300 kts | 345° |
| 2026-05-06 11:07 | 45.17396 | 8.54116 | 9130 ft | 296 kts | 345° |
| 2026-05-06 11:08 | 45.19395 | 8.53558 | 9015 ft | 289 kts | 345° |
| 2026-05-06 11:08 | 45.21349 | 8.53012 | 8876 ft | 283 kts | 346° |
| 2026-05-06 11:08 | 45.23254 | 8.52472 | 8678 ft | 278 kts | 346° |
| 2026-05-06 11:08 | 45.25135 | 8.51942 | 8417 ft | 274 kts | 345° |
| 2026-05-06 11:09 | 45.26999 | 8.51426 | 8170 ft | 272 kts | 346° |
| 2026-05-06 11:09 | 45.28848 | 8.50921 | 7890 ft | 270 kts | 348° |
| 2026-05-06 11:09 | 45.30708 | 8.50946 | 7630 ft | 269 kts | 14° |
| 2026-05-06 11:09 | 45.32348 | 8.52181 | 7379 ft | 269 kts | 44° |
| 2026-05-06 11:10 | 45.33387 | 8.54334 | 7120 ft | 265 kts | 74° |
| 2026-05-06 11:10 | 45.33805 | 8.56874 | 6849 ft | 264 kts | 82° |
| 2026-05-06 11:10 | 45.34157 | 8.59434 | 6586 ft | 263 kts | 82° |
| 2026-05-06 11:10 | 45.34483 | 8.61988 | 6354 ft | 261 kts | 89° |
| 2026-05-06 11:11 | 45.34222 | 8.64414 | 6161 ft | 242 kts | 120° |
| 2026-05-06 11:11 | 45.33189 | 8.66169 | 6015 ft | 228 kts | 150° |
| 2026-05-06 11:11 | 45.31733 | 8.66981 | 5963 ft | 226 kts | 171° |
| 2026-05-06 11:11 | 45.30209 | 8.67400 | 5845 ft | 226 kts | 171° |
| 2026-05-06 11:12 | 45.28668 | 8.67823 | 5721 ft | 225 kts | 171° |
| 2026-05-06 11:12 | 45.27134 | 8.68242 | 5598 ft | 224 kts | 171° |
| 2026-05-06 11:12 | 45.25606 | 8.68659 | 5473 ft | 224 kts | 170° |
| 2026-05-06 11:12 | 45.24071 | 8.69077 | 5328 ft | 225 kts | 171° |
| 2026-05-06 11:13 | 45.22537 | 8.69496 | 5194 ft | 225 kts | 171° |
| 2026-05-06 11:13 | 45.21001 | 8.69918 | 5058 ft | 224 kts | 171° |
| 2026-05-06 11:13 | 45.19480 | 8.70337 | 4922 ft | 220 kts | 171° |
| 2026-05-06 11:13 | 45.17994 | 8.70746 | 4691 ft | 217 kts | 171° |
| 2026-05-06 11:14 | 45.16515 | 8.71152 | 4564 ft | 216 kts | 171° |
| 2026-05-06 11:14 | 45.15037 | 8.71557 | 4435 ft | 216 kts | 170° |
| 2026-05-06 11:14 | 45.13567 | 8.71960 | 4301 ft | 215 kts | 170° |
| 2026-05-06 11:14 | 45.12100 | 8.72361 | 4178 ft | 214 kts | 171° |
| 2026-05-06 11:15 | 45.10634 | 8.72762 | 4049 ft | 215 kts | 170° |
| 2026-05-06 11:15 | 45.09162 | 8.73165 | 3932 ft | 215 kts | 170° |
| 2026-05-06 11:15 | 45.07700 | 8.73566 | 3976 ft | 215 kts | 169° |
| 2026-05-06 11:15 | 45.06233 | 8.73970 | 3978 ft | 215 kts | 170° |
| 2026-05-06 11:16 | 45.04769 | 8.74373 | 3978 ft | 214 kts | 169° |
| 2026-05-06 11:16 | 45.03447 | 8.75281 | 3976 ft | 217 kts | 137° |
| 2026-05-06 11:16 | 45.02745 | 8.77167 | 3979 ft | 225 kts | 100° |
| 2026-05-06 11:16 | 45.02901 | 8.79387 | 3977 ft | 231 kts | 81° |
| 2026-05-06 11:17 | 45.03224 | 8.81627 | 3976 ft | 233 kts | 82° |
| 2026-05-06 11:17 | 45.03534 | 8.83847 | 3968 ft | 234 kts | 84° |
| 2026-05-06 11:17 | 45.03947 | 8.86106 | 3968 ft | 243 kts | 66° |
| 2026-05-06 11:17 | 45.05116 | 8.87826 | 3977 ft | 248 kts | 26° |
| 2026-05-06 11:18 | 45.06780 | 8.88227 | 3977 ft | 244 kts | 349° |
| 2026-05-06 11:18 | 45.08454 | 8.87800 | 3977 ft | 244 kts | 346° |
| 2026-05-06 11:18 | 45.10123 | 8.87336 | 3979 ft | 245 kts | 346° |
| 2026-05-06 11:18 | 45.11795 | 8.86867 | 3980 ft | 246 kts | 346° |
| 2026-05-06 11:19 | 45.13474 | 8.86401 | 3978 ft | 246 kts | 346° |
| 2026-05-06 11:19 | 45.15147 | 8.85941 | 3987 ft | 244 kts | 348° |
| 2026-05-06 11:19 | 45.16803 | 8.85487 | 3980 ft | 242 kts | 348° |
| 2026-05-06 11:19 | 45.17894 | 8.85189 | 3978 ft | 241 kts | 348° |
| 2026-05-06 11:20 | 45.20097 | 8.84589 | 3978 ft | 241 kts | 348° |
| 2026-05-06 11:20 | 45.21179 | 8.84296 | 3980 ft | 235 kts | 348° |
| 2026-05-06 11:20 | 45.22733 | 8.83874 | 3974 ft | 221 kts | 348° |
| 2026-05-06 11:20 | 45.24226 | 8.83467 | 4078 ft | 218 kts | 348° |
| 2026-05-06 11:21 | 45.25708 | 8.83061 | 4087 ft | 216 kts | 347° |
| 2026-05-06 11:21 | 45.27183 | 8.82658 | 4089 ft | 216 kts | 347° |
| 2026-05-06 11:21 | 45.28663 | 8.82254 | 4095 ft | 217 kts | 347° |
| 2026-05-06 11:21 | 45.30153 | 8.81848 | 4106 ft | 218 kts | 349° |
| 2026-05-06 11:22 | 45.31657 | 8.81741 | 4090 ft | 215 kts | 357° |
| 2026-05-06 11:22 | 45.33143 | 8.81526 | 4086 ft | 215 kts | 349° |
| 2026-05-06 11:22 | 45.34624 | 8.81151 | 4112 ft | 217 kts | 347° |
| 2026-05-06 11:22 | 45.36104 | 8.80746 | 4111 ft | 215 kts | 347° |
| 2026-05-06 11:23 | 45.37575 | 8.80343 | 4085 ft | 217 kts | 347° |
| 2026-05-06 11:23 | 45.39055 | 8.79938 | 3952 ft | 216 kts | 347° |
| 2026-05-06 11:23 | 45.40532 | 8.79534 | 3830 ft | 215 kts | 347° |
| 2026-05-06 11:23 | 45.41993 | 8.79133 | 3709 ft | 213 kts | 347° |
| 2026-05-06 11:24 | 45.43451 | 8.78733 | 3494 ft | 213 kts | 347° |
| 2026-05-06 11:24 | 45.44910 | 8.78333 | 3384 ft | 215 kts | 349° |
| 2026-05-06 11:24 | 45.46375 | 8.77932 | 3259 ft | 214 kts | 348° |
| 2026-05-06 11:24 | 45.47835 | 8.77532 | 3159 ft | 214 kts | 348° |
| 2026-05-06 11:25 | 45.49296 | 8.77129 | 3083 ft | 213 kts | 348° |
| 2026-05-06 11:25 | 45.50767 | 8.76725 | 2857 ft | 217 kts | 348° |
| 2026-05-06 11:25 | 45.52243 | 8.76320 | 2605 ft | 213 kts | 349° |
| 2026-05-06 11:25 | 45.53679 | 8.75925 | 2317 ft | 208 kts | 348° |
| 2026-05-06 11:26 | 45.55084 | 8.75538 | 2020 ft | 203 kts | 349° |
| 2026-05-06 11:26 | 45.56431 | 8.75167 | 1752 ft | 195 kts | 349° |
| 2026-05-06 11:26 | 45.57721 | 8.74812 | 1520 ft | 182 kts | 349° |
| 2026-05-06 11:26 | 45.58916 | 8.74482 | 1295 ft | 170 kts | 351° |
| 2026-05-06 11:27 | 45.60045 | 8.74169 | 1041 ft | 159 kts | 352° |
| 2026-05-06 11:27 | 45.61108 | 8.73873 | 862 ft | 154 kts | 353° |
| 2026-05-06 11:27 | 45.62141 | 8.73585 | 742 ft | 143 kts | 353° |
| 2026-05-06 11:27 | 45.62973 | 8.73364 | 738 ft | 97 kts | 349° |
| 2026-05-06 11:28 | 45.63467 | 8.73219 | 741 ft | 48 kts | 348° |
| 2026-05-06 11:28 | 45.63672 | 8.73116 | 742 ft | 28 kts | 326° |
| 2026-05-06 11:28 | 45.63803 | 8.72938 | 741 ft | 23 kts | 308° |
| 2026-05-06 11:28 | 45.63866 | 8.72806 | 739 ft | 15 kts | 304° |
| 2026-05-06 11:29 | 45.63921 | 8.72689 | 740 ft | 14 kts | 304° |
| 2026-05-06 11:29 | 45.63956 | 8.72573 | 740 ft | 12 kts | 271° |
| 2026-05-06 11:29 | 45.63943 | 8.72461 | 740 ft | 11 kts | 259° |
| 2026-05-06 11:29 | 45.63949 | 8.72364 | 740 ft | 9 kts | 309° |
| 2026-05-06 11:30 | 45.64004 | 8.72332 | 740 ft | 8 kts | 348° |
| 2026-05-06 11:30 | 45.64072 | 8.72313 | 739 ft | 12 kts | 349° |
| 2026-05-06 11:30 | 45.64146 | 8.72292 | 741 ft | 10 kts | 349° |
| 2026-05-06 11:30 | 45.64211 | 8.72274 | 741 ft | 9 kts | 349° |
| 2026-05-06 11:31 | 45.64267 | 8.72259 | 741 ft | 8 kts | 349° |
| 2026-05-06 11:31 | 45.64316 | 8.72246 | 741 ft | 7 kts | 349° |
| 2026-05-06 11:31 | 45.64391 | 8.72223 | 741 ft | 14 kts | 342° |
| 2026-05-06 11:31 | 45.64458 | 8.72139 | 741 ft | 12 kts | 322° |
| 2026-05-06 11:32 | 45.64534 | 8.72110 | 740 ft | 11 kts | 348° |
| 2026-05-06 11:32 | 45.64605 | 8.72090 | 739 ft | 10 kts | 349° |
| 2026-05-06 11:32 | 45.64631 | 8.72120 | 740 ft | 5 kts | 78° |
| 2026-05-06 11:32 | 45.64637 | 8.72156 | 740 ft | 2 kts | 77° |
| 2026-05-06 11:33 | 45.64639 | 8.72172 | 740 ft | 1 kts | 76° |
| 2026-05-06 11:33 | 45.64640 | 8.72177 | 740 ft | 0 kts | 76° |